createdAt,value
2023-03-22T00:02:14.205Z,7.83
2023-03-22T00:04:43.074Z,7.87
2023-03-22T00:07:09.988Z,7.90
2023-03-22T00:09:36.974Z,7.86
2023-03-22T00:12:04.396Z,7.80
2023-03-22T00:14:31.210Z,7.68
2023-03-22T00:16:58.126Z,7.62
2023-03-22T00:19:25.005Z,7.54
2023-03-22T00:21:52.036Z,7.43
2023-03-22T00:24:18.970Z,7.41
2023-03-22T00:26:47.857Z,7.29
2023-03-22T00:29:14.743Z,7.17
2023-03-22T00:31:41.776Z,7.06
2023-03-22T00:34:08.686Z,7.00
2023-03-22T00:36:38.048Z,6.90
2023-03-22T00:39:04.892Z,6.78
2023-03-22T00:41:31.910Z,6.65
2023-03-22T00:43:58.914Z,6.45
2023-03-22T00:46:26.460Z,6.34
2023-03-22T00:48:53.348Z,6.19
2023-03-22T00:51:20.269Z,6.12
2023-03-22T00:53:50.174Z,6.03
2023-03-22T00:56:17.090Z,6.03
2023-03-22T00:58:44.001Z,6.04
2023-03-22T01:01:14.217Z,6.02
2023-03-22T01:03:43.028Z,5.94
2023-03-22T01:06:10.736Z,5.84
2023-03-22T01:08:39.420Z,5.76
2023-03-22T01:11:07.419Z,5.70
2023-03-22T01:13:34.796Z,5.65
2023-03-22T01:16:01.698Z,5.57
2023-03-22T01:18:28.551Z,5.46
2023-03-22T01:20:55.532Z,5.39
2023-03-22T01:23:22.450Z,5.30
2023-03-22T01:25:49.375Z,5.24
2023-03-22T01:28:16.356Z,5.12
2023-03-22T01:30:43.333Z,5.08
2023-03-22T01:33:10.441Z,5.07
2023-03-22T01:35:37.423Z,5.04
2023-03-22T01:38:04.347Z,5.09
2023-03-22T01:40:31.280Z,5.12
2023-03-22T01:42:58.093Z,5.02
2023-03-22T01:45:24.840Z,4.97
2023-03-22T01:48:12.804Z,4.93
2023-03-22T01:50:42.687Z,4.94
2023-03-22T01:53:09.574Z,4.98
2023-03-22T01:55:36.450Z,4.90
2023-03-22T01:58:03.603Z,4.83
2023-03-22T02:00:30.427Z,4.71
2023-03-22T02:02:57.421Z,4.60
2023-03-22T02:05:24.345Z,4.60
2023-03-22T02:07:51.186Z,4.62
2023-03-22T02:10:21.052Z,4.60
2023-03-22T02:13:22.553Z,4.53
2023-03-22T02:15:51.852Z,4.44
2023-03-22T02:18:31.546Z,4.31
2023-03-22T02:21:13.438Z,4.27
2023-03-22T02:23:43.562Z,4.12
2023-03-22T02:26:34.798Z,4.02
2023-03-22T02:29:26.732Z,3.99
2023-03-22T02:32:05.516Z,4.05
2023-03-22T02:35:01.914Z,4.09
2023-03-22T02:37:34.949Z,4.14
2023-03-22T02:40:14.087Z,4.13
2023-03-22T02:43:19.811Z,4.11
2023-03-22T02:45:55.762Z,4.13
2023-03-22T02:49:02.852Z,4.16
2023-03-22T02:51:37.626Z,4.17
2023-03-22T02:54:18.665Z,4.13
2023-03-22T02:57:03.323Z,4.06
2023-03-22T02:59:30.329Z,4.00
2023-03-22T03:01:58.575Z,3.94
2023-03-22T03:04:28.974Z,3.92
2023-03-22T03:07:01.862Z,3.83
2023-03-22T03:09:28.766Z,3.76
2023-03-22T03:11:55.815Z,3.64
2023-03-22T03:14:30.418Z,3.50
2023-03-22T03:17:18.845Z,3.46
2023-03-22T03:20:08.259Z,3.43
2023-03-22T03:22:35.096Z,3.45
2023-03-22T03:25:27.553Z,3.44
2023-03-22T03:27:58.641Z,3.37
2023-03-22T03:30:31.043Z,3.33
2023-03-22T03:33:03.773Z,3.29
2023-03-22T03:35:53.647Z,3.21
2023-03-22T03:38:23.982Z,3.19
2023-03-22T03:40:52.888Z,3.14
2023-03-22T03:43:19.845Z,3.17
2023-03-22T03:45:46.924Z,3.15
2023-03-22T03:48:24.721Z,3.10
2023-03-22T03:50:53.320Z,3.04
2023-03-22T03:53:20.251Z,3.04
2023-03-22T03:55:47.121Z,2.99
2023-03-22T03:58:16.274Z,2.97
2023-03-22T04:00:43.915Z,2.94
2023-03-22T04:03:10.719Z,2.97
2023-03-22T04:05:37.558Z,2.95
2023-03-22T04:08:04.550Z,2.92
2023-03-22T04:10:31.548Z,2.84
2023-03-22T04:12:58.376Z,2.77
2023-03-22T04:15:25.268Z,2.72
2023-03-22T04:17:54.061Z,2.64
2023-03-22T04:20:21.301Z,2.66
2023-03-22T04:22:49.352Z,2.62
2023-03-22T04:25:18.448Z,2.66
2023-03-22T04:27:47.431Z,2.73
2023-03-22T04:30:22.607Z,2.77
2023-03-22T04:32:50.098Z,2.79
2023-03-22T04:35:17.124Z,2.78
2023-03-22T04:37:44.845Z,2.67
2023-03-22T04:40:17.547Z,2.63
2023-03-22T04:42:45.129Z,2.57
2023-03-22T04:45:12.534Z,2.51
2023-03-22T04:47:39.596Z,2.53
2023-03-22T04:50:07.896Z,2.55
2023-03-22T04:52:34.889Z,2.49
2023-03-22T04:55:01.803Z,2.53
2023-03-22T04:57:28.713Z,2.58
2023-03-22T04:59:55.919Z,2.56
2023-03-22T05:02:22.956Z,2.55
2023-03-22T05:04:49.812Z,2.54
2023-03-22T05:07:16.720Z,2.54
2023-03-22T05:09:43.841Z,2.52
2023-03-22T05:12:11.236Z,2.50
2023-03-22T05:14:38.397Z,2.47
2023-03-22T05:17:05.439Z,2.44
2023-03-22T05:19:33.382Z,2.42
2023-03-22T05:22:02.342Z,2.40
2023-03-22T05:24:30.605Z,2.31
2023-03-22T05:27:01.395Z,2.38
2023-03-22T05:29:28.651Z,2.37
2023-03-22T05:31:55.558Z,2.35
2023-03-22T05:34:22.403Z,2.33
2023-03-22T05:36:51.708Z,2.36
2023-03-22T05:39:18.637Z,2.42
2023-03-22T05:41:46.303Z,2.45
2023-03-22T05:44:13.256Z,2.39
2023-03-22T05:46:40.231Z,2.43
2023-03-22T05:49:07.386Z,2.53
2023-03-22T05:51:37.049Z,3.22
2023-03-22T05:54:04.133Z,4.85
2023-03-22T05:56:31.107Z,6.58
2023-03-22T05:58:58.597Z,8.18
2023-03-22T06:01:25.731Z,9.63
2023-03-22T06:03:52.633Z,10.98
2023-03-22T06:06:19.610Z,12.25
2023-03-22T06:08:46.500Z,13.57
2023-03-22T06:11:13.552Z,14.72
2023-03-22T06:13:40.503Z,15.59
2023-03-22T06:16:08.183Z,16.74
2023-03-22T06:18:35.162Z,17.74
2023-03-22T06:21:02.142Z,18.74
2023-03-22T06:23:28.942Z,19.51
2023-03-22T06:25:55.944Z,20.11
2023-03-22T06:28:23.013Z,20.74
2023-03-22T06:30:49.863Z,21.17
2023-03-22T06:33:16.801Z,21.96
2023-03-22T06:35:43.807Z,22.44
2023-03-22T06:38:10.693Z,22.63
2023-03-22T06:40:37.822Z,23.05
2023-03-22T06:43:07.116Z,23.58
2023-03-22T06:45:34.455Z,23.91
2023-03-22T06:48:01.527Z,24.31
2023-03-22T06:50:29.020Z,24.68
2023-03-22T06:52:56.354Z,24.86
2023-03-22T06:55:23.455Z,24.77
2023-03-22T06:57:50.524Z,25.21
2023-03-22T07:00:17.883Z,24.88
2023-03-22T07:02:44.732Z,23.77
2023-03-22T07:05:11.745Z,23.25
2023-03-22T07:07:38.764Z,23.11
2023-03-22T07:10:08.055Z,22.67
2023-03-22T07:12:35.111Z,22.54
2023-03-22T07:15:02.340Z,22.43
2023-03-22T07:17:29.423Z,22.41
2023-03-22T07:19:56.321Z,23.12
2023-03-22T07:22:23.261Z,23.78
2023-03-22T07:24:56.690Z,24.08
2023-03-22T07:27:25.385Z,23.55
2023-03-22T07:30:04.481Z,23.32
2023-03-22T07:32:31.649Z,22.60
2023-03-22T07:34:58.490Z,22.91
2023-03-22T07:37:25.961Z,23.23
2023-03-22T07:39:52.833Z,23.02
2023-03-22T07:42:19.944Z,22.57
2023-03-22T07:44:47.798Z,22.75
2023-03-22T07:47:14.842Z,22.61
2023-03-22T07:49:41.966Z,22.68
2023-03-22T07:52:08.978Z,23.09
2023-03-22T07:54:35.946Z,22.88
2023-03-22T07:57:03.121Z,22.89
2023-03-22T07:59:31.332Z,22.36
2023-03-22T08:01:58.889Z,22.03
2023-03-22T08:04:26.646Z,22.00
2023-03-22T08:06:58.719Z,22.01
2023-03-22T08:09:26.286Z,21.54
2023-03-22T08:11:53.206Z,21.41
2023-03-22T08:14:27.415Z,21.30
2023-03-22T08:17:02.604Z,21.16
2023-03-22T08:19:31.589Z,20.77
2023-03-22T08:21:58.840Z,20.02
2023-03-22T08:24:28.851Z,19.46
2023-03-22T08:26:56.620Z,19.65
2023-03-22T08:29:23.978Z,19.85
2023-03-22T08:31:52.048Z,19.57
2023-03-22T08:34:19.333Z,19.43
2023-03-22T08:36:46.563Z,18.86
2023-03-22T08:39:13.930Z,18.38
2023-03-22T08:41:41.042Z,17.95
2023-03-22T08:44:08.027Z,17.30
2023-03-22T08:46:35.102Z,16.76
2023-03-22T08:49:03.002Z,17.11
2023-03-22T08:51:31.673Z,17.27
2023-03-22T08:54:00.822Z,17.17
2023-03-22T08:56:29.159Z,16.98
2023-03-22T08:58:56.052Z,17.31
2023-03-22T09:01:23.112Z,17.58
2023-03-22T09:03:49.978Z,21.45
2023-03-22T09:06:16.930Z,25.04
2023-03-22T09:08:44.150Z,27.73
2023-03-22T09:11:11.745Z,29.59
2023-03-22T09:13:38.764Z,30.81
2023-03-22T09:16:06.815Z,32.13
2023-03-22T09:18:33.704Z,33.42
2023-03-22T09:21:00.719Z,34.56
2023-03-22T09:23:30.498Z,35.14
2023-03-22T09:26:00.634Z,35.50
2023-03-22T09:28:28.687Z,36.00
2023-03-22T09:30:55.713Z,36.23
2023-03-22T09:33:23.459Z,35.95
2023-03-22T09:35:50.484Z,35.06
2023-03-22T09:38:17.441Z,34.19
2023-03-22T09:41:00.888Z,33.72
2023-03-22T09:43:38.663Z,32.87
2023-03-22T09:46:07.668Z,32.01
2023-03-22T09:48:38.730Z,30.89
2023-03-22T09:51:12.382Z,29.69
2023-03-22T09:53:39.281Z,28.99
2023-03-22T09:56:18.194Z,28.18
2023-03-22T09:59:09.156Z,27.22
2023-03-22T10:01:48.034Z,26.36
2023-03-22T10:04:39.109Z,25.58
2023-03-22T10:07:27.608Z,24.56
2023-03-22T10:10:09.629Z,23.61
2023-03-22T10:13:07.866Z,22.81
2023-03-22T10:15:59.320Z,22.32
2023-03-22T10:18:37.688Z,21.75
2023-03-22T10:21:13.040Z,21.32
2023-03-22T10:23:51.124Z,20.63
2023-03-22T10:26:32.054Z,19.84
2023-03-22T10:29:06.134Z,19.03
2023-03-22T10:31:33.109Z,18.32
2023-03-22T10:34:02.850Z,17.62
2023-03-22T10:36:33.488Z,17.15
2023-03-22T10:39:05.670Z,16.79
2023-03-22T10:41:32.683Z,16.77
2023-03-22T10:44:01.620Z,16.63
2023-03-22T10:46:29.608Z,16.56
2023-03-22T10:49:00.313Z,16.38
2023-03-22T10:51:43.674Z,16.38
2023-03-22T10:54:14.611Z,16.19
2023-03-22T10:56:41.740Z,16.06
2023-03-22T10:59:12.152Z,16.03
2023-03-22T11:01:44.294Z,16.06
2023-03-22T11:04:14.496Z,16.06
2023-03-22T11:06:49.731Z,16.10
2023-03-22T11:09:20.469Z,16.22
2023-03-22T11:11:57.888Z,16.24
2023-03-22T11:14:32.662Z,16.34
2023-03-22T11:17:06.431Z,16.43
2023-03-22T11:19:38.796Z,16.54
2023-03-22T11:22:27.071Z,16.70
2023-03-22T11:24:56.929Z,16.85
2023-03-22T11:27:25.704Z,17.05
2023-03-22T11:29:54.556Z,17.19
2023-03-22T11:32:29.805Z,17.23
2023-03-22T11:35:02.271Z,17.39
2023-03-22T11:37:29.516Z,17.48
2023-03-22T11:40:05.318Z,17.57
2023-03-22T11:42:34.463Z,17.76
2023-03-22T11:45:01.849Z,17.91
2023-03-22T11:47:28.785Z,17.89
2023-03-22T11:49:57.648Z,17.73
2023-03-22T11:52:27.574Z,17.71
2023-03-22T11:54:54.847Z,17.64
2023-03-22T11:57:28.692Z,17.63
2023-03-22T12:00:10.502Z,17.78
2023-03-22T12:03:26.751Z,17.89
2023-03-22T12:05:53.659Z,18.05
2023-03-22T12:08:28.447Z,18.03
2023-03-22T12:11:04.175Z,18.28
2023-03-22T12:13:39.926Z,18.49
2023-03-22T12:16:08.047Z,18.56
2023-03-22T12:18:41.801Z,18.69
2023-03-22T12:21:10.058Z,18.68
2023-03-22T12:23:37.193Z,18.71
2023-03-22T12:26:10.177Z,18.80
2023-03-22T12:28:40.814Z,18.89
2023-03-22T12:31:12.420Z,18.92
2023-03-22T12:33:49.722Z,19.34
2023-03-22T12:36:43.486Z,19.63
2023-03-22T12:39:20.270Z,19.88
2023-03-22T12:41:48.353Z,20.08
2023-03-22T12:44:25.136Z,20.38
2023-03-22T12:46:56.945Z,20.57
2023-03-22T12:49:36.079Z,20.75
2023-03-22T12:52:12.396Z,20.86
2023-03-22T12:54:39.255Z,20.99
2023-03-22T12:57:06.237Z,21.01
2023-03-22T12:59:33.272Z,20.89
2023-03-22T13:02:27.933Z,20.85
2023-03-22T13:04:57.111Z,21.00
2023-03-22T13:07:36.581Z,21.20
2023-03-22T13:10:29.798Z,21.16
2023-03-22T13:13:14.545Z,20.98
2023-03-22T13:16:13.904Z,20.77
2023-03-22T13:18:43.702Z,20.59
2023-03-22T13:21:20.116Z,20.62
2023-03-22T13:24:06.087Z,20.61
2023-03-22T13:26:53.706Z,20.77
2023-03-22T13:29:27.183Z,20.79
2023-03-22T13:31:58.860Z,20.75
2023-03-22T13:34:40.081Z,20.77
2023-03-22T13:37:12.467Z,20.78
2023-03-22T13:39:42.377Z,20.80
2023-03-22T13:42:18.217Z,20.87
2023-03-22T13:44:47.259Z,20.81
2023-03-22T13:47:32.581Z,20.63
2023-03-22T13:50:38.477Z,20.67
2023-03-22T13:53:16.160Z,20.70
2023-03-22T13:55:52.159Z,20.61
2023-03-22T13:58:36.730Z,20.70
2023-03-22T14:01:14.513Z,20.79
2023-03-22T14:03:43.049Z,20.87
2023-03-22T14:06:32.073Z,20.95
2023-03-22T14:09:06.265Z,20.94
2023-03-22T14:11:46.235Z,20.88
2023-03-22T14:14:22.616Z,20.90
2023-03-22T14:16:51.400Z,20.99
2023-03-22T14:19:26.118Z,21.05
